W K Kellogg Airport
KBTL : rendu visible

Aérodrome :











RETROUVEZ-NOUS SUR...

 
LOGIN :

S'inscrire | Disclaimer

   EN    FR    IT 

 









Légende :    VFR   VFR Marginal   IFR   IFR Intensif   IFR Très Intensif
Visi : 
Plafond : 
>= 8 km
>= 3000ft
5 à 8 km
1000 à 3000 ft
1500m à 5 km
500 à 1000 ft
800 à 1500m
200 à 500 ft
< 800m
< 200 ft
Symboles :   Orages  Brouillard  Fortes neiges  Fortes précipitations  Vent > 20 kt






- Altitude de l'aérodrome : 952 ft


KBTL - W K Kellogg

DERNIER METAR :
  • 270553Z AUTO 00000KT 10SM CLR 21/18 A3001 RMK AO2 SLP156 T02060183 10250 20194 56001

METARs EXPIRÉS :
  • 270453Z AUTO 14003KT 10SM CLR 22/18 A3002 RMK AO2 SLP156 T02170183 403110189
  • 270353Z AUTO 13006KT 10SM CLR 22/18 A3001 RMK AO2 SLP156 T02220183

TAF KBTL
Valide du 27 à 06h jusqu'au 28 à 06h UTC


270535Z 2706/2806 VRB03KT P6SM BKN200
FM270900 VRB04KT P6SM VCSH SCT040
FM271900 VRB04KT P6SM -SHRA VCTS BKN040CB
FM272200 19005KT P6SM VCSH BKN040
FM280000 VRB03KT P6SM BKN100
FIR KZAU / Amérique du Nord



MET'MAP, la Météo Aéronautique d'un coup d'oeil ! - Copyright ORBIFLY Décembre 2007 - Disclaimer

ORBIFLY MET'MAP TEAM :

Programmation & Développement : Alexandra Zaïnal
Sur une idée originale de : Baudouin d'Aumeries
Assistance à la programmation : Marc-Olivier Méhu
Soutien technique & logistique : Manuel Goepfert

Contact : metmap@orbifly.com




SOURCES & CREDITS :

   NOAA       Earth
Advisory